Kayu Ramin — 3FPC9 — position and weather

sailwx.info

Track history (hours):
 
Tides and Currents Weather Stations Pressure Air Temp Water Temp Dewpoint Dewpoint Depression Visibility Wind Speed Wind Dir Waves Ship Positions

Kayu Ramin

Last reported at 2014-Jul-29 04:25 UTC. Time now 2014-Aug-21 06:23 UTC.
Position N 01°13' E 103°53'.
Warning: this ship's position is 23 days out of date.

Length 225 m; draft 8.8 m.

Type: Cargo ship. MMSI: 354989000.

Date/timePositionNaut miles runAvg speedWind from/ knotsBaromVisibWave heightAir tempDewpointWater temp
2014-Jul-29 04:25N 01°13' E 103°53'4 4.4
2014-Jul-29 03:33N 01°16' E 103°54'0 0.3
2014-Jul-29 02:33N 01°16' E 103°54'0 0.0
2014-Jul-29 01:33N 01°16' E 103°54'0 0.0
2014-Jul-29 00:09N 01°16' E 103°54'0 0.0
2014-Jul-28 23:33N 01°16' E 103°54'0 0.1
2014-Jul-28 22:33N 01°16' E 103°54'0 0.1
2014-Jul-28 21:33N 01°16' E 103°54'0 0.0
2014-Jul-28 20:33N 01°16' E 103°54'0 0.0
2014-Jul-28 19:33N 01°16' E 103°54'0 0.1
2014-Jul-28 18:33N 01°16' E 103°54'0 0.1
2014-Jul-28 17:33N 01°16' E 103°54'0 0.1
2014-Jul-28 16:30N 01°16' E 103°54'0 0.1
2014-Jul-28 15:33N 01°16' E 103°54'0 0.0
2014-Jul-28 14:32N 01°16' E 103°54'0 0.0
2014-Jul-28 13:32N 01°16' E 103°54'0 0.1
2014-Jul-28 12:33N 01°16' E 103°54'4 4.0
2014-Jul-28 11:33N 01°16' E 103°58'9 9.2
2014-Jul-28 10:33N 01°17' E 104°07'  
2014-Jul-22 06:09N 22°19' E 119°34'712.1
2014-Jul-22 05:32N 22°25' E 119°38'1211.9
2014-Jul-22 04:33N 22°29' E 119°50'1212.2
2014-Jul-22 03:33N 22°41' E 119°51'48311.1
2014-Jul-20 08:10N 30°07' E 123°18'79 4.5
2014-Jul-19 14:32N 31°06' E 122°18'3012.1
2014-Jul-19 12:04N 31°18' E 121°46'610.9
2014-Jul-19 11:33N 31°21' E 121°40'9 9.2
2014-Jul-19 10:33N 31°25' E 121°30'7 6.8
2014-Jul-19 09:33N 31°30' E 121°25'7 6.8
2014-Jul-19 08:28N 31°36' E 121°19'0 0.1
2014-Jul-19 06:14N 31°36' E 121°19'7 9.4
2014-Jul-19 05:30N 31°40' E 121°13'1212.8
2014-Jul-19 04:32N 31°47' E 121°01'  
Track history (hours):
 
Tides and Currents Weather Stations Pressure Air Temp Water Temp Dewpoint Dewpoint Depression Visibility Wind Speed Wind Dir Waves Ship Positions

Kayu Ramin

Last reported at 2014-Jul-29 04:25 UTC. Time now 2014-Aug-21 06:23 UTC.
Position N 01°13' E 103°53'.
Warning: this ship's position is 23 days out of date.

Length 225 m; draft 8.8 m.

Type: Cargo ship. MMSI: 354989000.

Date/timePositionNaut miles runAvg speedWind from/ knotsBaromVisibWave heightAir tempDewpointWater temp
2014-Jul-29 04:25N 01°13' E 103°53'4 4.4
2014-Jul-29 03:33N 01°16' E 103°54'0 0.3
2014-Jul-29 02:33N 01°16' E 103°54'0 0.0
2014-Jul-29 01:33N 01°16' E 103°54'0 0.0
2014-Jul-29 00:09N 01°16' E 103°54'0 0.0
2014-Jul-28 23:33N 01°16' E 103°54'0 0.1
2014-Jul-28 22:33N 01°16' E 103°54'0 0.1
2014-Jul-28 21:33N 01°16' E 103°54'0 0.0
2014-Jul-28 20:33N 01°16' E 103°54'0 0.0
2014-Jul-28 19:33N 01°16' E 103°54'0 0.1
2014-Jul-28 18:33N 01°16' E 103°54'0 0.1
2014-Jul-28 17:33N 01°16' E 103°54'0 0.1
2014-Jul-28 16:30N 01°16' E 103°54'0 0.1
2014-Jul-28 15:33N 01°16' E 103°54'0 0.0
2014-Jul-28 14:32N 01°16' E 103°54'0 0.0
2014-Jul-28 13:32N 01°16' E 103°54'0 0.1
2014-Jul-28 12:33N 01°16' E 103°54'4 4.0
2014-Jul-28 11:33N 01°16' E 103°58'9 9.2
2014-Jul-28 10:33N 01°17' E 104°07'  
2014-Jul-22 06:09N 22°19' E 119°34'712.1
2014-Jul-22 05:32N 22°25' E 119°38'1211.9
2014-Jul-22 04:33N 22°29' E 119°50'1212.2
2014-Jul-22 03:33N 22°41' E 119°51'48311.1
2014-Jul-20 08:10N 30°07' E 123°18'79 4.5
2014-Jul-19 14:32N 31°06' E 122°18'3012.1
2014-Jul-19 12:04N 31°18' E 121°46'610.9
2014-Jul-19 11:33N 31°21' E 121°40'9 9.2
2014-Jul-19 10:33N 31°25' E 121°30'7 6.8
2014-Jul-19 09:33N 31°30' E 121°25'7 6.8
2014-Jul-19 08:28N 31°36' E 121°19'0 0.1
2014-Jul-19 06:14N 31°36' E 121°19'7 9.4
2014-Jul-19 05:30N 31°40' E 121°13'1212.8
2014-Jul-19 04:32N 31°47' E 121°01'  

Dump ship's entire track history